KHRL/HRL METAR and TAF weather

Enter ICAO airport designator
Station Type Date Time Source
KHRL METAR 2020/07/11 03:52 UTC NOAA

KHRL 110352Z 15008KT 10SM CLR 27/24 A2998 RMK AO2 SLP153 T02720244


Station Type Date Time Source
KHRL Decoded METAR 2020/07/11 03:52 UTC NOAA

RIO GRANDE VALLEY, TX, United States (KHRL) 26-13N 97-39W 10M
Jul 10, 2020 - 11:52 PM EDT / 2020.07.11 0352 UTC
Wind: from the SSE (150 degrees) at 9 MPH (8 KT):0
Visibility: 10 mile(s):0
Sky conditions: clear
Temperature: 81.0 F (27.2 C)
Dew Point: 75.9 F (24.4 C)
Relative Humidity: 84%
Pressure (altimeter): 29.98 in. Hg (1015 hPa)
ob: KHRL 110352Z 15008KT 10SM CLR 27/24 A2998 RMK AO2 SLP153 T02720244
cycle: 4

Station Type Date Time Source
KHRL TAF 2020/07/11 01:06 UTC NOAA

TAF
AMD KHRL 110103Z 1101/1124 13015KT P6SM SKC
FM110400 15010G19KT P6SM FEW070 SCT250
FM110800 16007KT P6SM FEW025 SCT060
FM112100 13012KT P6SM SKC

Example: see airport list